Aviation Digital Data Service (ADDS)

Output produced by METARs form (0917 UTC 23 July 2019)
found at http://www.aviationweather.gov/metar/data/
 
METAR text: EPLL 230900Z 30005KT 250V330 9999 SCT014 BKN019 18/14 Q1020
Conditions at: EPLL (LODZ/LUBLINEK , PL) observed 0900 UTC 23 July 2019
Temperature: 18.0°C (64°F)
Dewpoint: 14.0°C (57°F) [RH = 77%]
Pressure (altimeter): 30.12 inches Hg (1020.0 mb)
Winds: from the WNW (300 degrees) at 6 MPH (5 knots; 2.6 m/s)
Visibility: 6 or more miles (10+ km)
Ceiling: 1900 feet AGL
Clouds: scattered clouds at 1400 feet AGL
broken clouds at 1900 feet AGL
Weather: no significant weather observed at this time

METAR text: EPLL 230830Z 31004KT 220V360 9999 FEW009 BKN017 17/15 Q1020
Conditions at: EPLL (LODZ/LUBLINEK , PL) observed 0830 UTC 23 July 2019
Temperature: 17.0°C (63°F)
Dewpoint: 15.0°C (59°F) [RH = 88%]
Pressure (altimeter): 30.12 inches Hg (1020.0 mb)
Winds: from the NW (310 degrees) at 5 MPH (4 knots; 2.1 m/s)
Visibility: 6 or more miles (10+ km)
Ceiling: 1700 feet AGL
Clouds: few clouds at 900 feet AGL
broken clouds at 1700 feet AGL
Weather: no significant weather observed at this time

Forecast for: EPLL (LODZ/LUBLINEK , PL)
Text: TAF EPLL 230530Z 2306/2406 27007KT 9999 BKN030
Forecast period: 0600 to 2300 UTC 23 July 2019
Forecast type: FROM: standard forecast or significant change
Winds: from the W (270 degrees) at 8 MPH (7 knots; 3.6 m/s)
Visibility: 6 or more miles 10+ km)
Ceiling: 3000 feet AGL
Clouds: broken clouds at 3000 feet AGL
Weather: no significant weather forecast for this period
Text: TEMPO 2306/2314 -RA BKN007 BKN012
Forecast period: 0600 to 1400 UTC 23 July 2019
Forecast type: TEMPORARY: The following changes expected for less than half the time period
Visibility: missing
Ceiling: 700 feet AGL
Clouds: broken clouds at 700 feet AGL
broken clouds at 1200 feet AGL
Weather: -RA  (light rain)
Text: BECMG 2323/2402 BKN012
Forecast period: 2300 UTC 23 July 2019 to 0600 UTC 24 July 2019
Forecast type: BECOMING: Conditions expected to become as follows by 0200 UTC 24 July 2019
Winds: from the W (270 degrees) at 8 MPH (7 knots; 3.6 m/s)
Visibility: 6 or more miles 10+ km)
Ceiling: 1200 feet AGL
Clouds: broken clouds at 1200 feet AGL
Weather: no significant weather forecast for this period
Text: PROB40
Forecast period: 0000 to 0500 UTC 24 July 2019
Forecast type: TEMPORARY: The following changes expected for less than half the time period
Visibility: 1.86 miles (2.99 km)
Ceiling: 800 feet AGL
Clouds: broken clouds at 800 feet AGL
Weather: BR  (mist)